Terminal Aerodrome Forecast
Issued by NWS

Home | Current Version | Previous Version | Text Only | Print | Product List | Glossary Off
Versions: 1 2 3 4 5 6 7 8 9 10 11 12 13 14 15 16

000
FTUS42 KMHX 241132
TAFOAJ
TAF
KOAJ 241132Z 2412/2512 22013G20KT P6SM BKN020
     FM241400 23013G20KT P6SM BKN040
     FM242100 22010KT 6SM SHRA VCTS BKN040CB
     FM250000 21006KT 4SM SHRA VCTS SCT025CB OVC040
     FM250600 22006KT 4SM -SHRA VCTS SCT007CB OVC030
      AMD LTD TO CLD VIS AND WIND=

USA.gov is the U.S. government's official web portal to all federal, state and local government web resources and services.